sensor_id;sensor_type;location;lat;lon;timestamp;P1;durP1;ratioP1;P2;durP2;ratioP2
48588;SDS011;34369;51.174;6.738;2023-08-06T00:01:02;29.48;;;27.48;;
48588;SDS011;34369;51.174;6.738;2023-08-06T00:03:34;29.38;;;27.38;;
48588;SDS011;34369;51.174;6.738;2023-08-06T00:06:06;29.77;;;27.75;;
48588;SDS011;34369;51.174;6.738;2023-08-06T00:08:39;30.02;;;27.92;;
48588;SDS011;34369;51.174;6.738;2023-08-06T00:11:11;30.08;;;27.85;;
48588;SDS011;34369;51.174;6.738;2023-08-06T00:13:44;30.08;;;28.08;;
48588;SDS011;34369;51.174;6.738;2023-08-06T00:16:16;29.33;;;27.38;;
48588;SDS011;34369;51.174;6.738;2023-08-06T00:18:48;31.23;;;29.02;;
48588;SDS011;34369;51.174;6.738;2023-08-06T00:21:20;30.33;;;28.20;;
48588;SDS011;34369;51.174;6.738;2023-08-06T00:23:53;30.40;;;28.40;;
48588;SDS011;34369;51.174;6.738;2023-08-06T00:26:25;30.30;;;28.20;;
48588;SDS011;34369;51.174;6.738;2023-08-06T00:29:00;30.42;;;28.20;;
48588;SDS011;34369;51.174;6.738;2023-08-06T00:31:32;30.08;;;28.08;;
48588;SDS011;34369;51.174;6.738;2023-08-06T00:34:04;30.35;;;28.30;;
48588;SDS011;34369;51.174;6.738;2023-08-06T00:36:36;30.30;;;28.23;;
48588;SDS011;34369;51.174;6.738;2023-08-06T00:39:09;30.08;;;28.08;;
48588;SDS011;34369;51.174;6.738;2023-08-06T00:41:41;30.00;;;27.95;;
48588;SDS011;34369;51.174;6.738;2023-08-06T00:44:14;29.90;;;27.90;;
48588;SDS011;34369;51.174;6.738;2023-08-06T00:46:46;30.75;;;28.65;;
48588;SDS011;34369;51.174;6.738;2023-08-06T00:49:18;30.77;;;28.67;;
48588;SDS011;34369;51.174;6.738;2023-08-06T00:51:51;31.00;;;28.70;;
48588;SDS011;34369;51.174;6.738;2023-08-06T00:54:24;30.73;;;28.58;;
48588;SDS011;34369;51.174;6.738;2023-08-06T00:56:57;31.75;;;29.48;;
48588;SDS011;34369;51.174;6.738;2023-08-06T00:59:32;30.23;;;28.23;;
48588;SDS011;34369;51.174;6.738;2023-08-06T01:02:04;30.15;;;28.05;;
48588;SDS011;34369;51.174;6.738;2023-08-06T01:04:37;29.35;;;27.45;;
48588;SDS011;34369;51.174;6.738;2023-08-06T01:07:12;29.63;;;27.45;;
48588;SDS011;34369;51.174;6.738;2023-08-06T01:10:02;30.27;;;28.27;;
48588;SDS011;34369;51.174;6.738;2023-08-06T01:12:51;29.27;;;27.27;;
48588;SDS011;34369;51.174;6.738;2023-08-06T01:15:38;29.85;;;27.83;;
48588;SDS011;34369;51.174;6.738;2023-08-06T01:18:16;30.40;;;28.30;;
48588;SDS011;34369;51.174;6.738;2023-08-06T01:20:49;29.70;;;27.70;;
48588;SDS011;34369;51.174;6.738;2023-08-06T01:23:21;29.73;;;27.70;;
48588;SDS011;34369;51.174;6.738;2023-08-06T01:25:56;29.77;;;27.75;;
48588;SDS011;34369;51.174;6.738;2023-08-06T01:28:37;29.58;;;27.58;;
48588;SDS011;34369;51.174;6.738;2023-08-06T01:31:18;29.25;;;27.20;;
48588;SDS011;34369;51.174;6.738;2023-08-06T01:33:53;28.95;;;27.05;;
48588;SDS011;34369;51.174;6.738;2023-08-06T01:36:31;29.05;;;27.05;;
48588;SDS011;34369;51.174;6.738;2023-08-06T01:39:04;29.45;;;27.55;;
48588;SDS011;34369;51.174;6.738;2023-08-06T01:41:36;29.67;;;27.52;;
48588;SDS011;34369;51.174;6.738;2023-08-06T01:44:08;29.63;;;27.60;;
48588;SDS011;34369;51.174;6.738;2023-08-06T01:46:41;28.83;;;26.90;;
48588;SDS011;34369;51.174;6.738;2023-08-06T01:49:13;28.90;;;26.90;;
48588;SDS011;34369;51.174;6.738;2023-08-06T01:51:46;29.05;;;27.05;;
48588;SDS011;34369;51.174;6.738;2023-08-06T01:54:18;29.60;;;27.65;;
48588;SDS011;34369;51.174;6.738;2023-08-06T01:56:50;28.35;;;26.45;;
48588;SDS011;34369;51.174;6.738;2023-08-06T01:59:22;28.60;;;26.70;;
48588;SDS011;34369;51.174;6.738;2023-08-06T02:01:54;29.08;;;27.17;;
48588;SDS011;34369;51.174;6.738;2023-08-06T02:04:26;28.73;;;26.65;;
48588;SDS011;34369;51.174;6.738;2023-08-06T02:06:59;28.58;;;26.58;;
48588;SDS011;34369;51.174;6.738;2023-08-06T02:09:32;28.60;;;26.65;;
48588;SDS011;34369;51.174;6.738;2023-08-06T02:12:05;28.92;;;26.92;;
48588;SDS011;34369;51.174;6.738;2023-08-06T02:14:38;28.77;;;26.88;;
48588;SDS011;34369;51.174;6.738;2023-08-06T02:17:10;29.67;;;27.77;;
48588;SDS011;34369;51.174;6.738;2023-08-06T02:19:42;29.55;;;27.23;;
48588;SDS011;34369;51.174;6.738;2023-08-06T02:22:16;29.50;;;27.60;;
48588;SDS011;34369;51.174;6.738;2023-08-06T02:24:48;29.17;;;27.27;;
48588;SDS011;34369;51.174;6.738;2023-08-06T02:27:20;28.92;;;27.02;;
48588;SDS011;34369;51.174;6.738;2023-08-06T02:29:52;29.42;;;27.42;;
48588;SDS011;34369;51.174;6.738;2023-08-06T02:32:24;28.63;;;26.67;;
48588;SDS011;34369;51.174;6.738;2023-08-06T02:34:56;28.23;;;26.33;;
48588;SDS011;34369;51.174;6.738;2023-08-06T02:37:30;28.48;;;26.58;;
48588;SDS011;34369;51.174;6.738;2023-08-06T02:40:04;28.63;;;26.73;;
48588;SDS011;34369;51.174;6.738;2023-08-06T02:42:37;29.15;;;27.15;;
48588;SDS011;34369;51.174;6.738;2023-08-06T02:45:09;28.13;;;26.20;;
48588;SDS011;34369;51.174;6.738;2023-08-06T02:47:41;28.45;;;26.55;;
48588;SDS011;34369;51.174;6.738;2023-08-06T02:50:13;29.70;;;27.70;;
48588;SDS011;34369;51.174;6.738;2023-08-06T02:52:47;28.65;;;26.75;;
48588;SDS011;34369;51.174;6.738;2023-08-06T02:55:20;28.80;;;26.98;;
48588;SDS011;34369;51.174;6.738;2023-08-06T02:57:52;29.13;;;27.13;;
48588;SDS011;34369;51.174;6.738;2023-08-06T03:00:24;29.63;;;27.63;;
48588;SDS011;34369;51.174;6.738;2023-08-06T03:02:56;28.77;;;26.88;;
48588;SDS011;34369;51.174;6.738;2023-08-06T03:05:28;28.85;;;26.95;;
48588;SDS011;34369;51.174;6.738;2023-08-06T03:08:09;28.05;;;26.25;;
48588;SDS011;34369;51.174;6.738;2023-08-06T03:10:41;28.77;;;26.88;;
48588;SDS011;34369;51.174;6.738;2023-08-06T03:13:12;30.45;;;28.45;;
48588;SDS011;34369;51.174;6.738;2023-08-06T03:15:51;29.13;;;27.13;;
48588;SDS011;34369;51.174;6.738;2023-08-06T03:18:24;30.10;;;28.00;;
48588;SDS011;34369;51.174;6.738;2023-08-06T03:20:57;30.10;;;27.95;;
48588;SDS011;34369;51.174;6.738;2023-08-06T03:23:33;29.33;;;27.42;;
48588;SDS011;34369;51.174;6.738;2023-08-06T03:26:04;29.70;;;27.70;;
48588;SDS011;34369;51.174;6.738;2023-08-06T03:28:36;29.05;;;27.15;;
48588;SDS011;34369;51.174;6.738;2023-08-06T03:31:08;29.90;;;27.83;;
48588;SDS011;34369;51.174;6.738;2023-08-06T03:33:40;29.02;;;27.13;;
48588;SDS011;34369;51.174;6.738;2023-08-06T03:36:12;30.85;;;28.75;;
48588;SDS011;34369;51.174;6.738;2023-08-06T03:38:46;29.30;;;27.40;;
48588;SDS011;34369;51.174;6.738;2023-08-06T03:41:18;29.35;;;27.45;;
48588;SDS011;34369;51.174;6.738;2023-08-06T03:43:50;29.98;;;27.75;;
48588;SDS011;34369;51.174;6.738;2023-08-06T03:46:22;29.23;;;27.33;;
48588;SDS011;34369;51.174;6.738;2023-08-06T03:48:55;29.42;;;27.33;;
48588;SDS011;34369;51.174;6.738;2023-08-06T03:51:27;29.70;;;27.70;;
48588;SDS011;34369;51.174;6.738;2023-08-06T03:54:01;29.33;;;27.40;;
48588;SDS011;34369;51.174;6.738;2023-08-06T03:56:33;29.42;;;27.42;;
48588;SDS011;34369;51.174;6.738;2023-08-06T03:59:05;29.20;;;27.20;;
48588;SDS011;34369;51.174;6.738;2023-08-06T04:01:37;29.90;;;27.90;;
48588;SDS011;34369;51.174;6.738;2023-08-06T04:04:09;29.70;;;27.80;;
48588;SDS011;34369;51.174;6.738;2023-08-06T04:06:41;29.45;;;27.48;;
48588;SDS011;34369;51.174;6.738;2023-08-06T04:09:14;29.15;;;27.23;;
48588;SDS011;34369;51.174;6.738;2023-08-06T04:11:46;29.75;;;27.75;;
48588;SDS011;34369;51.174;6.738;2023-08-06T04:14:19;30.27;;;28.17;;
48588;SDS011;34369;51.174;6.738;2023-08-06T04:16:51;29.80;;;27.80;;
48588;SDS011;34369;51.174;6.738;2023-08-06T04:19:23;29.63;;;27.63;;
48588;SDS011;34369;51.174;6.738;2023-08-06T04:21:55;30.80;;;28.70;;
48588;SDS011;34369;51.174;6.738;2023-08-06T04:24:28;29.50;;;27.50;;
48588;SDS011;34369;51.174;6.738;2023-08-06T04:27:01;30.38;;;28.27;;
48588;SDS011;34369;51.174;6.738;2023-08-06T04:29:35;29.40;;;27.40;;
48588;SDS011;34369;51.174;6.738;2023-08-06T04:32:08;30.00;;;27.80;;
48588;SDS011;34369;51.174;6.738;2023-08-06T04:34:41;29.05;;;27.15;;
48588;SDS011;34369;51.174;6.738;2023-08-06T04:37:13;29.23;;;27.23;;
48588;SDS011;34369;51.174;6.738;2023-08-06T04:39:47;29.90;;;28.00;;
48588;SDS011;34369;51.174;6.738;2023-08-06T04:42:19;30.30;;;28.20;;
48588;SDS011;34369;51.174;6.738;2023-08-06T04:44:51;29.27;;;27.30;;
48588;SDS011;34369;51.174;6.738;2023-08-06T04:47:23;29.30;;;27.33;;
48588;SDS011;34369;51.174;6.738;2023-08-06T04:49:56;30.13;;;28.13;;
48588;SDS011;34369;51.174;6.738;2023-08-06T04:52:28;29.40;;;27.40;;
48588;SDS011;34369;51.174;6.738;2023-08-06T04:55:04;28.88;;;26.88;;
48588;SDS011;34369;51.174;6.738;2023-08-06T04:57:38;29.10;;;27.20;;
48588;SDS011;34369;51.174;6.738;2023-08-06T05:00:13;29.23;;;27.33;;
48588;SDS011;34369;51.174;6.738;2023-08-06T05:02:45;29.45;;;27.45;;
48588;SDS011;34369;51.174;6.738;2023-08-06T05:05:17;29.50;;;27.50;;
48588;SDS011;34369;51.174;6.738;2023-08-06T05:07:49;29.27;;;27.42;;
48588;SDS011;34369;51.174;6.738;2023-08-06T05:10:25;28.45;;;26.52;;
48588;SDS011;34369;51.174;6.738;2023-08-06T05:12:57;28.77;;;26.88;;
48588;SDS011;34369;51.174;6.738;2023-08-06T05:15:32;28.58;;;26.77;;
48588;SDS011;34369;51.174;6.738;2023-08-06T05:18:05;28.67;;;26.77;;
48588;SDS011;34369;51.174;6.738;2023-08-06T05:20:37;28.73;;;26.83;;
48588;SDS011;34369;51.174;6.738;2023-08-06T05:23:10;28.33;;;26.42;;
48588;SDS011;34369;51.174;6.738;2023-08-06T05:25:44;28.88;;;26.98;;
48588;SDS011;34369;51.174;6.738;2023-08-06T05:28:16;29.05;;;27.15;;
48588;SDS011;34369;51.174;6.738;2023-08-06T05:30:48;28.67;;;26.77;;
48588;SDS011;34369;51.174;6.738;2023-08-06T05:33:20;28.63;;;26.73;;
48588;SDS011;34369;51.174;6.738;2023-08-06T05:35:53;28.73;;;26.83;;
48588;SDS011;34369;51.174;6.738;2023-08-06T05:38:24;29.15;;;27.13;;
48588;SDS011;34369;51.174;6.738;2023-08-06T05:40:58;28.75;;;26.85;;
48588;SDS011;34369;51.174;6.738;2023-08-06T05:43:40;28.88;;;26.95;;
48588;SDS011;34369;51.174;6.738;2023-08-06T05:49:05;29.65;;;27.65;;
48588;SDS011;34369;51.174;6.738;2023-08-06T05:51:37;29.98;;;28.05;;
48588;SDS011;34369;51.174;6.738;2023-08-06T05:54:12;31.92;;;29.73;;
48588;SDS011;34369;51.174;6.738;2023-08-06T05:56:46;31.95;;;29.75;;
48588;SDS011;34369;51.174;6.738;2023-08-06T05:59:18;31.73;;;29.45;;
48588;SDS011;34369;51.174;6.738;2023-08-06T06:01:50;31.90;;;29.70;;
48588;SDS011;34369;51.174;6.738;2023-08-06T06:04:22;30.02;;;27.92;;
48588;SDS011;34369;51.174;6.738;2023-08-06T06:06:54;29.73;;;27.63;;
48588;SDS011;34369;51.174;6.738;2023-08-06T06:09:26;29.50;;;27.52;;
48588;SDS011;34369;51.174;6.738;2023-08-06T06:12:00;29.05;;;27.08;;
48588;SDS011;34369;51.174;6.738;2023-08-06T06:14:32;29.00;;;26.88;;
48588;SDS011;34369;51.174;6.738;2023-08-06T06:17:04;28.63;;;26.73;;
48588;SDS011;34369;51.174;6.738;2023-08-06T06:19:36;28.98;;;26.98;;
48588;SDS011;34369;51.174;6.738;2023-08-06T06:22:11;28.20;;;26.35;;
48588;SDS011;34369;51.174;6.738;2023-08-06T06:24:44;28.38;;;26.48;;
48588;SDS011;34369;51.174;6.738;2023-08-06T06:27:18;28.67;;;26.77;;
48588;SDS011;34369;51.174;6.738;2023-08-06T06:29:50;27.73;;;25.88;;
48588;SDS011;34369;51.174;6.738;2023-08-06T06:32:24;28.65;;;26.65;;
48588;SDS011;34369;51.174;6.738;2023-08-06T06:34:56;27.83;;;26.02;;
48588;SDS011;34369;51.174;6.738;2023-08-06T06:37:31;28.23;;;26.33;;
48588;SDS011;34369;51.174;6.738;2023-08-06T06:40:04;28.33;;;26.48;;
48588;SDS011;34369;51.174;6.738;2023-08-06T06:42:38;27.77;;;25.98;;
48588;SDS011;34369;51.174;6.738;2023-08-06T06:45:11;28.63;;;26.73;;
48588;SDS011;34369;51.174;6.738;2023-08-06T06:47:43;27.98;;;26.00;;
48588;SDS011;34369;51.174;6.738;2023-08-06T06:50:15;28.00;;;26.17;;
48588;SDS011;34369;51.174;6.738;2023-08-06T06:52:47;28.08;;;26.27;;
48588;SDS011;34369;51.174;6.738;2023-08-06T06:55:19;28.00;;;26.13;;
48588;SDS011;34369;51.174;6.738;2023-08-06T06:57:53;27.52;;;25.73;;
48588;SDS011;34369;51.174;6.738;2023-08-06T07:00:25;28.38;;;26.58;;
48588;SDS011;34369;51.174;6.738;2023-08-06T07:02:57;27.58;;;25.60;;
48588;SDS011;34369;51.174;6.738;2023-08-06T07:05:32;27.23;;;25.42;;
48588;SDS011;34369;51.174;6.738;2023-08-06T07:08:04;29.95;;;26.95;;
48588;SDS011;34369;51.174;6.738;2023-08-06T07:10:36;28.60;;;26.70;;
48588;SDS011;34369;51.174;6.738;2023-08-06T07:13:10;28.77;;;26.77;;
48588;SDS011;34369;51.174;6.738;2023-08-06T07:15:42;28.25;;;26.35;;
48588;SDS011;34369;51.174;6.738;2023-08-06T07:18:14;28.20;;;26.30;;
48588;SDS011;34369;51.174;6.738;2023-08-06T07:20:57;28.08;;;26.17;;
48588;SDS011;34369;51.174;6.738;2023-08-06T07:23:41;28.00;;;26.20;;
48588;SDS011;34369;51.174;6.738;2023-08-06T07:26:13;29.02;;;27.02;;
48588;SDS011;34369;51.174;6.738;2023-08-06T07:28:47;29.30;;;27.30;;
48588;SDS011;34369;51.174;6.738;2023-08-06T07:31:54;29.33;;;27.30;;
48588;SDS011;34369;51.174;6.738;2023-08-06T07:34:27;30.13;;;28.02;;
48588;SDS011;34369;51.174;6.738;2023-08-06T07:36:59;30.40;;;28.40;;
48588;SDS011;34369;51.174;6.738;2023-08-06T07:39:31;29.33;;;27.33;;
48588;SDS011;34369;51.174;6.738;2023-08-06T07:42:04;29.52;;;27.52;;
48588;SDS011;34369;51.174;6.738;2023-08-06T07:44:41;29.08;;;27.17;;
48588;SDS011;34369;51.174;6.738;2023-08-06T07:47:13;29.35;;;27.45;;
48588;SDS011;34369;51.174;6.738;2023-08-06T07:49:45;28.40;;;26.48;;
48588;SDS011;34369;51.174;6.738;2023-08-06T07:52:17;28.48;;;26.58;;
48588;SDS011;34369;51.174;6.738;2023-08-06T07:54:50;28.98;;;27.08;;
48588;SDS011;34369;51.174;6.738;2023-08-06T07:57:22;28.77;;;26.88;;
48588;SDS011;34369;51.174;6.738;2023-08-06T07:59:56;28.17;;;26.27;;
48588;SDS011;34369;51.174;6.738;2023-08-06T08:02:28;27.98;;;26.00;;
48588;SDS011;34369;51.174;6.738;2023-08-06T08:05:00;27.00;;;25.17;;
48588;SDS011;34369;51.174;6.738;2023-08-06T08:07:32;27.45;;;25.55;;
48588;SDS011;34369;51.174;6.738;2023-08-06T08:10:05;27.45;;;25.58;;
48588;SDS011;34369;51.174;6.738;2023-08-06T08:12:38;27.38;;;25.48;;
48588;SDS011;34369;51.174;6.738;2023-08-06T08:15:12;26.98;;;25.08;;
48588;SDS011;34369;51.174;6.738;2023-08-06T08:17:44;27.50;;;25.60;;
48588;SDS011;34369;51.174;6.738;2023-08-06T08:20:17;26.38;;;24.48;;
48588;SDS011;34369;51.174;6.738;2023-08-06T08:22:50;27.27;;;25.48;;
48588;SDS011;34369;51.174;6.738;2023-08-06T08:25:22;26.52;;;24.52;;
48588;SDS011;34369;51.174;6.738;2023-08-06T08:27:54;26.85;;;25.05;;
48588;SDS011;34369;51.174;6.738;2023-08-06T08:30:28;25.58;;;23.85;;
48588;SDS011;34369;51.174;6.738;2023-08-06T08:33:00;26.10;;;24.30;;
48588;SDS011;34369;51.174;6.738;2023-08-06T08:35:32;24.40;;;22.70;;
48588;SDS011;34369;51.174;6.738;2023-08-06T08:38:04;24.23;;;22.52;;
48588;SDS011;34369;51.174;6.738;2023-08-06T08:40:37;23.40;;;21.80;;
48588;SDS011;34369;51.174;6.738;2023-08-06T08:43:17;24.67;;;22.98;;
48588;SDS011;34369;51.174;6.738;2023-08-06T08:45:54;23.90;;;22.20;;
48588;SDS011;34369;51.174;6.738;2023-08-06T08:48:28;24.35;;;22.65;;
48588;SDS011;34369;51.174;6.738;2023-08-06T08:51:01;24.95;;;23.25;;
48588;SDS011;34369;51.174;6.738;2023-08-06T08:53:34;24.98;;;23.17;;
48588;SDS011;34369;51.174;6.738;2023-08-06T08:56:09;25.33;;;23.63;;
48588;SDS011;34369;51.174;6.738;2023-08-06T08:58:44;25.30;;;23.60;;
48588;SDS011;34369;51.174;6.738;2023-08-06T09:01:18;25.20;;;23.50;;
48588;SDS011;34369;51.174;6.738;2023-08-06T09:03:55;25.58;;;23.88;;
48588;SDS011;34369;51.174;6.738;2023-08-06T09:06:29;25.77;;;24.08;;
48588;SDS011;34369;51.174;6.738;2023-08-06T09:09:06;25.75;;;23.95;;
48588;SDS011;34369;51.174;6.738;2023-08-06T09:11:42;25.58;;;23.88;;
48588;SDS011;34369;51.174;6.738;2023-08-06T09:14:15;25.55;;;23.85;;
48588;SDS011;34369;51.174;6.738;2023-08-06T09:16:53;23.98;;;22.38;;
48588;SDS011;34369;51.174;6.738;2023-08-06T09:19:26;22.75;;;21.10;;
48588;SDS011;34369;51.174;6.738;2023-08-06T09:21:59;22.83;;;21.23;;
48588;SDS011;34369;51.174;6.738;2023-08-06T09:24:31;23.38;;;21.77;;
48588;SDS011;34369;51.174;6.738;2023-08-06T09:27:03;23.83;;;22.00;;
48588;SDS011;34369;51.174;6.738;2023-08-06T09:29:39;24.17;;;22.48;;
48588;SDS011;34369;51.174;6.738;2023-08-06T09:32:16;25.20;;;23.17;;
48588;SDS011;34369;51.174;6.738;2023-08-06T09:34:48;24.55;;;22.77;;
48588;SDS011;34369;51.174;6.738;2023-08-06T09:37:31;25.00;;;23.10;;
48588;SDS011;34369;51.174;6.738;2023-08-06T09:40:21;25.05;;;23.38;;
48588;SDS011;34369;51.174;6.738;2023-08-06T09:42:57;25.75;;;23.85;;
48588;SDS011;34369;51.174;6.738;2023-08-06T09:45:31;25.65;;;23.85;;
48588;SDS011;34369;51.174;6.738;2023-08-06T09:48:07;25.80;;;24.10;;
48588;SDS011;34369;51.174;6.738;2023-08-06T09:53:13;26.25;;;24.23;;
48588;SDS011;34369;51.174;6.738;2023-08-06T09:55:46;27.40;;;25.60;;
48588;SDS011;34369;51.174;6.738;2023-08-06T09:58:18;26.70;;;24.90;;
48588;SDS011;34369;51.174;6.738;2023-08-06T10:00:52;27.15;;;25.20;;
48588;SDS011;34369;51.174;6.738;2023-08-06T10:03:31;26.55;;;24.75;;
48588;SDS011;34369;51.174;6.738;2023-08-06T10:06:05;26.52;;;24.63;;
48588;SDS011;34369;51.174;6.738;2023-08-06T10:08:39;27.30;;;25.40;;
48588;SDS011;34369;51.174;6.738;2023-08-06T10:11:12;26.63;;;24.83;;
48588;SDS011;34369;51.174;6.738;2023-08-06T10:13:48;27.00;;;25.10;;
48588;SDS011;34369;51.174;6.738;2023-08-06T10:16:24;26.40;;;24.70;;
48588;SDS011;34369;51.174;6.738;2023-08-06T10:19:01;27.50;;;25.80;;
48588;SDS011;34369;51.174;6.738;2023-08-06T10:21:34;27.17;;;25.48;;
48588;SDS011;34369;51.174;6.738;2023-08-06T10:24:07;27.13;;;25.42;;
48588;SDS011;34369;51.174;6.738;2023-08-06T10:26:40;26.85;;;25.10;;
48588;SDS011;34369;51.174;6.738;2023-08-06T10:32:17;27.00;;;25.27;;
48588;SDS011;34369;51.174;6.738;2023-08-06T10:34:56;26.00;;;24.30;;
48588;SDS011;34369;51.174;6.738;2023-08-06T10:37:44;26.77;;;25.08;;
48588;SDS011;34369;51.174;6.738;2023-08-06T10:40:20;27.27;;;25.58;;
48588;SDS011;34369;51.174;6.738;2023-08-06T10:42:56;27.10;;;25.30;;
48588;SDS011;34369;51.174;6.738;2023-08-06T10:45:36;27.45;;;25.65;;
48588;SDS011;34369;51.174;6.738;2023-08-06T10:48:09;28.00;;;26.20;;
48588;SDS011;34369;51.174;6.738;2023-08-06T10:50:43;27.40;;;25.70;;
48588;SDS011;34369;51.174;6.738;2023-08-06T10:53:15;27.42;;;25.73;;
48588;SDS011;34369;51.174;6.738;2023-08-06T10:55:48;27.50;;;25.70;;
48588;SDS011;34369;51.174;6.738;2023-08-06T10:58:20;27.60;;;25.80;;
48588;SDS011;34369;51.174;6.738;2023-08-06T11:00:52;27.48;;;25.77;;
48588;SDS011;34369;51.174;6.738;2023-08-06T11:03:24;26.90;;;25.08;;
48588;SDS011;34369;51.174;6.738;2023-08-06T11:06:03;28.00;;;26.20;;
48588;SDS011;34369;51.174;6.738;2023-08-06T11:08:40;27.48;;;25.77;;
48588;SDS011;34369;51.174;6.738;2023-08-06T11:11:31;28.17;;;26.38;;
48588;SDS011;34369;51.174;6.738;2023-08-06T11:14:03;28.00;;;26.20;;
48588;SDS011;34369;51.174;6.738;2023-08-06T11:16:38;28.15;;;26.35;;
48588;SDS011;34369;51.174;6.738;2023-08-06T11:19:11;28.67;;;26.88;;
48588;SDS011;34369;51.174;6.738;2023-08-06T11:22:03;28.73;;;26.83;;
48588;SDS011;34369;51.174;6.738;2023-08-06T11:24:39;28.80;;;26.98;;
48588;SDS011;34369;51.174;6.738;2023-08-06T11:27:12;29.58;;;27.67;;
48588;SDS011;34369;51.174;6.738;2023-08-06T11:32:45;28.63;;;26.73;;
48588;SDS011;34369;51.174;6.738;2023-08-06T11:35:23;29.52;;;27.63;;
48588;SDS011;34369;51.174;6.738;2023-08-06T11:37:57;29.50;;;27.50;;
48588;SDS011;34369;51.174;6.738;2023-08-06T11:40:30;31.00;;;28.85;;
48588;SDS011;34369;51.174;6.738;2023-08-06T11:43:03;30.20;;;28.08;;
48588;SDS011;34369;51.174;6.738;2023-08-06T11:45:39;30.10;;;28.10;;
48588;SDS011;34369;51.174;6.738;2023-08-06T11:48:13;30.30;;;28.27;;
48588;SDS011;34369;51.174;6.738;2023-08-06T11:50:49;29.90;;;27.90;;
48588;SDS011;34369;51.174;6.738;2023-08-06T11:53:31;29.38;;;27.38;;
48588;SDS011;34369;51.174;6.738;2023-08-06T11:56:03;28.30;;;26.50;;
48588;SDS011;34369;51.174;6.738;2023-08-06T11:58:52;29.17;;;27.17;;
48588;SDS011;34369;51.174;6.738;2023-08-06T12:01:26;29.23;;;27.17;;
48588;SDS011;34369;51.174;6.738;2023-08-06T12:03:58;29.85;;;27.85;;
48588;SDS011;34369;51.174;6.738;2023-08-06T12:06:31;29.65;;;27.55;;
48588;SDS011;34369;51.174;6.738;2023-08-06T12:09:24;29.95;;;27.98;;
48588;SDS011;34369;51.174;6.738;2023-08-06T12:11:57;29.00;;;27.10;;
48588;SDS011;34369;51.174;6.738;2023-08-06T12:14:29;29.42;;;27.35;;
48588;SDS011;34369;51.174;6.738;2023-08-06T12:17:01;28.90;;;26.90;;
48588;SDS011;34369;51.174;6.738;2023-08-06T12:19:33;28.77;;;26.88;;
48588;SDS011;34369;51.174;6.738;2023-08-06T12:22:09;29.58;;;27.58;;
48588;SDS011;34369;51.174;6.738;2023-08-06T12:27:36;29.17;;;27.27;;
48588;SDS011;34369;51.174;6.738;2023-08-06T12:30:09;29.85;;;27.85;;
48588;SDS011;34369;51.174;6.738;2023-08-06T12:32:43;31.00;;;28.90;;
48588;SDS011;34369;51.174;6.738;2023-08-06T12:35:21;29.77;;;27.77;;
48588;SDS011;34369;51.174;6.738;2023-08-06T12:38:08;29.17;;;27.23;;
48588;SDS011;34369;51.174;6.738;2023-08-06T12:40:51;29.60;;;27.50;;
48588;SDS011;34369;51.174;6.738;2023-08-06T12:43:33;29.02;;;27.10;;
48588;SDS011;34369;51.174;6.738;2023-08-06T12:46:10;29.88;;;27.88;;
48588;SDS011;34369;51.174;6.738;2023-08-06T12:48:43;30.02;;;28.08;;
48588;SDS011;34369;51.174;6.738;2023-08-06T12:51:18;29.23;;;27.33;;
48588;SDS011;34369;51.174;6.738;2023-08-06T12:53:51;29.13;;;27.07;;
48588;SDS011;34369;51.174;6.738;2023-08-06T12:56:24;28.98;;;27.08;;
48588;SDS011;34369;51.174;6.738;2023-08-06T12:58:57;28.85;;;26.95;;
48588;SDS011;34369;51.174;6.738;2023-08-06T13:01:37;28.85;;;26.95;;
48588;SDS011;34369;51.174;6.738;2023-08-06T13:04:35;29.88;;;27.88;;
48588;SDS011;34369;51.174;6.738;2023-08-06T13:07:07;29.13;;;27.17;;
48588;SDS011;34369;51.174;6.738;2023-08-06T13:09:40;28.27;;;26.38;;
48588;SDS011;34369;51.174;6.738;2023-08-06T13:12:13;28.50;;;26.60;;
48588;SDS011;34369;51.174;6.738;2023-08-06T13:14:46;29.00;;;27.10;;
48588;SDS011;34369;51.174;6.738;2023-08-06T13:17:27;27.95;;;26.10;;
48588;SDS011;34369;51.174;6.738;2023-08-06T13:20:02;27.90;;;26.10;;
48588;SDS011;34369;51.174;6.738;2023-08-06T13:22:38;29.10;;;27.20;;
48588;SDS011;34369;51.174;6.738;2023-08-06T13:25:10;29.25;;;27.17;;
48588;SDS011;34369;51.174;6.738;2023-08-06T13:27:45;28.38;;;26.48;;
48588;SDS011;34369;51.174;6.738;2023-08-06T13:30:18;29.60;;;27.70;;
48588;SDS011;34369;51.174;6.738;2023-08-06T13:32:50;28.55;;;26.58;;
48588;SDS011;34369;51.174;6.738;2023-08-06T13:35:22;29.75;;;27.50;;
48588;SDS011;34369;51.174;6.738;2023-08-06T13:37:55;28.95;;;26.95;;
48588;SDS011;34369;51.174;6.738;2023-08-06T13:40:27;28.38;;;26.48;;
48588;SDS011;34369;51.174;6.738;2023-08-06T13:43:01;29.13;;;27.23;;
48588;SDS011;34369;51.174;6.738;2023-08-06T13:45:36;29.00;;;27.00;;
48588;SDS011;34369;51.174;6.738;2023-08-06T13:48:09;28.73;;;26.75;;
48588;SDS011;34369;51.174;6.738;2023-08-06T13:50:41;28.23;;;26.33;;
48588;SDS011;34369;51.174;6.738;2023-08-06T13:53:13;28.73;;;26.73;;
48588;SDS011;34369;51.174;6.738;2023-08-06T13:55:45;29.42;;;27.42;;
48588;SDS011;34369;51.174;6.738;2023-08-06T13:58:19;28.65;;;26.75;;
48588;SDS011;34369;51.174;6.738;2023-08-06T14:00:51;28.67;;;26.58;;
48588;SDS011;34369;51.174;6.738;2023-08-06T14:03:24;29.10;;;27.00;;
48588;SDS011;34369;51.174;6.738;2023-08-06T14:05:56;28.13;;;26.20;;
48588;SDS011;34369;51.174;6.738;2023-08-06T14:08:31;28.88;;;26.98;;
48588;SDS011;34369;51.174;6.738;2023-08-06T14:11:03;28.58;;;26.65;;
48588;SDS011;34369;51.174;6.738;2023-08-06T14:13:38;28.25;;;26.25;;
48588;SDS011;34369;51.174;6.738;2023-08-06T14:16:10;28.05;;;26.15;;
48588;SDS011;34369;51.174;6.738;2023-08-06T14:18:45;29.30;;;27.30;;
48588;SDS011;34369;51.174;6.738;2023-08-06T14:21:34;28.15;;;26.25;;
48588;SDS011;34369;51.174;6.738;2023-08-06T14:24:09;28.27;;;26.38;;
48588;SDS011;34369;51.174;6.738;2023-08-06T14:26:41;28.48;;;26.58;;
48588;SDS011;34369;51.174;6.738;2023-08-06T14:29:14;28.02;;;26.23;;
48588;SDS011;34369;51.174;6.738;2023-08-06T14:31:46;28.17;;;26.27;;
48588;SDS011;34369;51.174;6.738;2023-08-06T14:34:18;28.17;;;26.10;;
48588;SDS011;34369;51.174;6.738;2023-08-06T14:36:51;28.40;;;26.50;;
48588;SDS011;34369;51.174;6.738;2023-08-06T14:39:23;27.73;;;25.83;;
48588;SDS011;34369;51.174;6.738;2023-08-06T14:42:04;27.38;;;25.48;;
48588;SDS011;34369;51.174;6.738;2023-08-06T14:44:38;27.52;;;25.67;;
48588;SDS011;34369;51.174;6.738;2023-08-06T14:47:11;27.95;;;26.05;;
48588;SDS011;34369;51.174;6.738;2023-08-06T14:49:43;27.98;;;26.08;;
48588;SDS011;34369;51.174;6.738;2023-08-06T14:52:21;28.08;;;26.17;;
48588;SDS011;34369;51.174;6.738;2023-08-06T14:55:06;27.90;;;25.83;;
48588;SDS011;34369;51.174;6.738;2023-08-06T15:01:09;27.65;;;25.83;;
48588;SDS011;34369;51.174;6.738;2023-08-06T15:03:43;27.65;;;25.85;;
48588;SDS011;34369;51.174;6.738;2023-08-06T15:06:15;26.55;;;24.75;;
48588;SDS011;34369;51.174;6.738;2023-08-06T15:08:47;27.33;;;25.42;;
48588;SDS011;34369;51.174;6.738;2023-08-06T15:11:20;28.13;;;26.33;;
48588;SDS011;34369;51.174;6.738;2023-08-06T15:13:52;27.77;;;25.88;;
48588;SDS011;34369;51.174;6.738;2023-08-06T15:16:32;28.33;;;26.52;;
48588;SDS011;34369;51.174;6.738;2023-08-06T15:19:04;27.33;;;25.42;;